sensor_id;sensor_type;location;lat;lon;timestamp;P1;durP1;ratioP1;P2;durP2;ratioP2
69779;SDS011;57052;55.602;38.096;2024-01-07T00:01:46;14.07;;;5.73;;
69779;SDS011;57052;55.602;38.096;2024-01-07T00:04:14;15.37;;;6.63;;
69779;SDS011;57052;55.602;38.096;2024-01-07T00:06:43;16.90;;;7.10;;
69779;SDS011;57052;55.602;38.096;2024-01-07T00:09:10;26.30;;;8.27;;
69779;SDS011;57052;55.602;38.096;2024-01-07T00:11:38;14.90;;;4.97;;
69779;SDS011;57052;55.602;38.096;2024-01-07T00:14:04;12.77;;;4.90;;
69779;SDS011;57052;55.602;38.096;2024-01-07T00:16:30;10.03;;;4.50;;
69779;SDS011;57052;55.602;38.096;2024-01-07T00:18:56;9.47;;;4.87;;
69779;SDS011;57052;55.602;38.096;2024-01-07T00:21:21;8.33;;;3.80;;
69779;SDS011;57052;55.602;38.096;2024-01-07T00:23:47;9.93;;;4.23;;
69779;SDS011;57052;55.602;38.096;2024-01-07T00:26:13;7.73;;;3.37;;
69779;SDS011;57052;55.602;38.096;2024-01-07T00:28:39;11.23;;;3.53;;
69779;SDS011;57052;55.602;38.096;2024-01-07T00:31:05;11.18;;;3.25;;
69779;SDS011;57052;55.602;38.096;2024-01-07T00:33:33;8.03;;;3.30;;
69779;SDS011;57052;55.602;38.096;2024-01-07T00:36:00;5.43;;;2.42;;
69779;SDS011;57052;55.602;38.096;2024-01-07T00:38:27;10.03;;;3.23;;
69779;SDS011;57052;55.602;38.096;2024-01-07T00:40:53;6.23;;;2.60;;
69779;SDS011;57052;55.602;38.096;2024-01-07T00:43:19;7.73;;;3.57;;
69779;SDS011;57052;55.602;38.096;2024-01-07T00:45:44;4.87;;;2.47;;
69779;SDS011;57052;55.602;38.096;2024-01-07T00:48:10;6.67;;;2.67;;
69779;SDS011;57052;55.602;38.096;2024-01-07T00:50:36;4.93;;;2.03;;
69779;SDS011;57052;55.602;38.096;2024-01-07T00:53:01;7.47;;;3.23;;
69779;SDS011;57052;55.602;38.096;2024-01-07T00:55:27;7.47;;;3.03;;
69779;SDS011;57052;55.602;38.096;2024-01-07T00:57:53;5.97;;;2.77;;
69779;SDS011;57052;55.602;38.096;2024-01-07T01:00:19;9.63;;;3.30;;
69779;SDS011;57052;55.602;38.096;2024-01-07T01:02:45;6.43;;;2.23;;
69779;SDS011;57052;55.602;38.096;2024-01-07T01:05:11;8.00;;;2.90;;
69779;SDS011;57052;55.602;38.096;2024-01-07T01:07:37;6.50;;;2.93;;
69779;SDS011;57052;55.602;38.096;2024-01-07T01:10:02;6.80;;;2.60;;
69779;SDS011;57052;55.602;38.096;2024-01-07T01:12:29;7.40;;;2.87;;
69779;SDS011;57052;55.602;38.096;2024-01-07T01:14:55;7.37;;;2.53;;
69779;SDS011;57052;55.602;38.096;2024-01-07T01:17:20;7.70;;;2.57;;
69779;SDS011;57052;55.602;38.096;2024-01-07T01:19:46;4.43;;;2.43;;
69779;SDS011;57052;55.602;38.096;2024-01-07T01:22:12;4.90;;;1.93;;
69779;SDS011;57052;55.602;38.096;2024-01-07T01:24:38;4.47;;;2.27;;
69779;SDS011;57052;55.602;38.096;2024-01-07T01:27:04;4.73;;;2.40;;
69779;SDS011;57052;55.602;38.096;2024-01-07T01:29:30;10.73;;;2.37;;
69779;SDS011;57052;55.602;38.096;2024-01-07T01:31:56;5.47;;;2.00;;
69779;SDS011;57052;55.602;38.096;2024-01-07T01:34:22;6.90;;;2.53;;
69779;SDS011;57052;55.602;38.096;2024-01-07T01:36:48;5.87;;;2.50;;
69779;SDS011;57052;55.602;38.096;2024-01-07T01:39:15;11.03;;;3.20;;
69779;SDS011;57052;55.602;38.096;2024-01-07T01:41:40;6.17;;;3.07;;
69779;SDS011;57052;55.602;38.096;2024-01-07T01:44:06;15.47;;;4.53;;
69779;SDS011;57052;55.602;38.096;2024-01-07T01:46:32;6.00;;;3.00;;
69779;SDS011;57052;55.602;38.096;2024-01-07T01:48:58;13.13;;;3.47;;
69779;SDS011;57052;55.602;38.096;2024-01-07T01:51:24;6.27;;;2.70;;
69779;SDS011;57052;55.602;38.096;2024-01-07T01:53:51;6.43;;;2.87;;
69779;SDS011;57052;55.602;38.096;2024-01-07T01:56:17;5.23;;;2.53;;
69779;SDS011;57052;55.602;38.096;2024-01-07T01:58:46;8.80;;;2.80;;
69779;SDS011;57052;55.602;38.096;2024-01-07T02:01:13;6.40;;;2.13;;
69779;SDS011;57052;55.602;38.096;2024-01-07T02:03:39;3.77;;;2.03;;
69779;SDS011;57052;55.602;38.096;2024-01-07T02:06:05;4.43;;;2.40;;
69779;SDS011;57052;55.602;38.096;2024-01-07T02:08:31;7.07;;;2.53;;
69779;SDS011;57052;55.602;38.096;2024-01-07T02:10:57;6.53;;;2.73;;
69779;SDS011;57052;55.602;38.096;2024-01-07T02:13:23;5.70;;;2.13;;
69779;SDS011;57052;55.602;38.096;2024-01-07T02:15:48;4.03;;;2.33;;
69779;SDS011;57052;55.602;38.096;2024-01-07T02:18:14;7.17;;;2.93;;
69779;SDS011;57052;55.602;38.096;2024-01-07T02:20:41;4.03;;;1.93;;
69779;SDS011;57052;55.602;38.096;2024-01-07T02:23:06;5.90;;;2.20;;
69779;SDS011;57052;55.602;38.096;2024-01-07T02:25:36;4.93;;;1.73;;
69779;SDS011;57052;55.602;38.096;2024-01-07T02:28:02;3.40;;;2.00;;
69779;SDS011;57052;55.602;38.096;2024-01-07T02:30:27;8.63;;;2.70;;
69779;SDS011;57052;55.602;38.096;2024-01-07T02:32:53;3.57;;;1.77;;
69779;SDS011;57052;55.602;38.096;2024-01-07T02:35:19;10.70;;;3.27;;
69779;SDS011;57052;55.602;38.096;2024-01-07T02:37:45;10.37;;;3.50;;
69779;SDS011;57052;55.602;38.096;2024-01-07T02:40:11;5.60;;;2.77;;
69779;SDS011;57052;55.602;38.096;2024-01-07T02:42:36;6.37;;;1.90;;
69779;SDS011;57052;55.602;38.096;2024-01-07T02:45:02;5.10;;;2.07;;
69779;SDS011;57052;55.602;38.096;2024-01-07T02:47:31;4.90;;;2.07;;
69779;SDS011;57052;55.602;38.096;2024-01-07T02:49:57;5.17;;;2.13;;
69779;SDS011;57052;55.602;38.096;2024-01-07T02:52:23;5.40;;;2.13;;
69779;SDS011;57052;55.602;38.096;2024-01-07T02:54:48;5.17;;;2.10;;
69779;SDS011;57052;55.602;38.096;2024-01-07T02:57:14;6.63;;;2.70;;
69779;SDS011;57052;55.602;38.096;2024-01-07T02:59:39;5.23;;;1.70;;
69779;SDS011;57052;55.602;38.096;2024-01-07T03:02:05;7.07;;;2.80;;
69779;SDS011;57052;55.602;38.096;2024-01-07T03:04:31;7.07;;;1.90;;
69779;SDS011;57052;55.602;38.096;2024-01-07T03:06:57;8.40;;;1.63;;
69779;SDS011;57052;55.602;38.096;2024-01-07T03:09:22;4.97;;;1.93;;
69779;SDS011;57052;55.602;38.096;2024-01-07T03:11:48;5.40;;;2.73;;
69779;SDS011;57052;55.602;38.096;2024-01-07T03:14:14;5.40;;;1.83;;
69779;SDS011;57052;55.602;38.096;2024-01-07T03:16:42;3.80;;;1.87;;
69779;SDS011;57052;55.602;38.096;2024-01-07T03:19:07;7.50;;;2.60;;
69779;SDS011;57052;55.602;38.096;2024-01-07T03:21:33;5.73;;;2.10;;
69779;SDS011;57052;55.602;38.096;2024-01-07T03:23:59;7.07;;;2.07;;
69779;SDS011;57052;55.602;38.096;2024-01-07T03:26:28;6.83;;;2.53;;
69779;SDS011;57052;55.602;38.096;2024-01-07T03:28:55;5.13;;;2.20;;
69779;SDS011;57052;55.602;38.096;2024-01-07T03:31:25;3.13;;;1.97;;
69779;SDS011;57052;55.602;38.096;2024-01-07T03:33:51;4.37;;;1.20;;
69779;SDS011;57052;55.602;38.096;2024-01-07T03:36:17;3.73;;;2.17;;
69779;SDS011;57052;55.602;38.096;2024-01-07T03:38:42;6.40;;;2.13;;
69779;SDS011;57052;55.602;38.096;2024-01-07T03:41:08;3.57;;;1.87;;
69779;SDS011;57052;55.602;38.096;2024-01-07T03:43:34;4.53;;;2.17;;
69779;SDS011;57052;55.602;38.096;2024-01-07T03:46:00;5.90;;;2.57;;
69779;SDS011;57052;55.602;38.096;2024-01-07T03:48:26;6.13;;;2.33;;
69779;SDS011;57052;55.602;38.096;2024-01-07T03:50:51;4.47;;;1.63;;
69779;SDS011;57052;55.602;38.096;2024-01-07T03:53:17;5.23;;;1.63;;
69779;SDS011;57052;55.602;38.096;2024-01-07T03:55:43;4.80;;;2.47;;
69779;SDS011;57052;55.602;38.096;2024-01-07T03:58:09;3.20;;;2.00;;
69779;SDS011;57052;55.602;38.096;2024-01-07T04:00:34;9.13;;;2.70;;
69779;SDS011;57052;55.602;38.096;2024-01-07T04:03:01;5.43;;;1.80;;
69779;SDS011;57052;55.602;38.096;2024-01-07T04:05:28;6.00;;;2.63;;
69779;SDS011;57052;55.602;38.096;2024-01-07T04:07:55;7.07;;;2.40;;
69779;SDS011;57052;55.602;38.096;2024-01-07T04:10:21;6.53;;;1.87;;
69779;SDS011;57052;55.602;38.096;2024-01-07T04:12:47;4.73;;;2.07;;
69779;SDS011;57052;55.602;38.096;2024-01-07T04:15:13;4.30;;;2.17;;
69779;SDS011;57052;55.602;38.096;2024-01-07T04:17:39;8.13;;;2.17;;
69779;SDS011;57052;55.602;38.096;2024-01-07T04:20:05;5.43;;;2.17;;
69779;SDS011;57052;55.602;38.096;2024-01-07T04:22:31;8.33;;;3.00;;
69779;SDS011;57052;55.602;38.096;2024-01-07T04:24:57;3.33;;;1.40;;
69779;SDS011;57052;55.602;38.096;2024-01-07T04:27:23;5.77;;;1.90;;
69779;SDS011;57052;55.602;38.096;2024-01-07T04:29:50;3.50;;;1.80;;
69779;SDS011;57052;55.602;38.096;2024-01-07T04:32:16;3.07;;;1.90;;
69779;SDS011;57052;55.602;38.096;2024-01-07T04:34:42;3.73;;;1.73;;
69779;SDS011;57052;55.602;38.096;2024-01-07T04:37:08;1.93;;;1.03;;
69779;SDS011;57052;55.602;38.096;2024-01-07T04:39:34;6.03;;;2.40;;
69779;SDS011;57052;55.602;38.096;2024-01-07T04:41:59;2.50;;;1.27;;
69779;SDS011;57052;55.602;38.096;2024-01-07T04:44:25;5.03;;;1.67;;
69779;SDS011;57052;55.602;38.096;2024-01-07T04:46:54;5.90;;;2.83;;
69779;SDS011;57052;55.602;38.096;2024-01-07T04:49:19;5.97;;;2.07;;
69779;SDS011;57052;55.602;38.096;2024-01-07T04:51:45;5.63;;;1.93;;
69779;SDS011;57052;55.602;38.096;2024-01-07T04:54:11;5.17;;;1.50;;
69779;SDS011;57052;55.602;38.096;2024-01-07T04:56:37;3.20;;;1.77;;
69779;SDS011;57052;55.602;38.096;2024-01-07T04:59:02;8.33;;;2.63;;
69779;SDS011;57052;55.602;38.096;2024-01-07T05:01:28;2.40;;;1.40;;
69779;SDS011;57052;55.602;38.096;2024-01-07T05:03:54;4.40;;;1.87;;
69779;SDS011;57052;55.602;38.096;2024-01-07T05:06:19;2.40;;;1.13;;
69779;SDS011;57052;55.602;38.096;2024-01-07T05:08:45;3.13;;;1.17;;
69779;SDS011;57052;55.602;38.096;2024-01-07T05:11:11;4.50;;;2.10;;
69779;SDS011;57052;55.602;38.096;2024-01-07T05:13:37;6.07;;;2.00;;
69779;SDS011;57052;55.602;38.096;2024-01-07T05:16:02;8.50;;;1.87;;
69779;SDS011;57052;55.602;38.096;2024-01-07T05:18:28;5.27;;;1.87;;
69779;SDS011;57052;55.602;38.096;2024-01-07T05:20:54;4.90;;;1.80;;
69779;SDS011;57052;55.602;38.096;2024-01-07T05:23:20;2.60;;;1.50;;
69779;SDS011;57052;55.602;38.096;2024-01-07T05:25:45;3.50;;;1.77;;
69779;SDS011;57052;55.602;38.096;2024-01-07T05:28:12;4.70;;;1.83;;
69779;SDS011;57052;55.602;38.096;2024-01-07T05:30:41;4.53;;;1.87;;
69779;SDS011;57052;55.602;38.096;2024-01-07T05:33:09;3.27;;;1.20;;
69779;SDS011;57052;55.602;38.096;2024-01-07T05:35:35;2.10;;;1.57;;
69779;SDS011;57052;55.602;38.096;2024-01-07T05:38:01;3.83;;;2.20;;
69779;SDS011;57052;55.602;38.096;2024-01-07T05:40:27;8.40;;;2.10;;
69779;SDS011;57052;55.602;38.096;2024-01-07T05:42:52;4.27;;;1.97;;
69779;SDS011;57052;55.602;38.096;2024-01-07T05:45:18;5.07;;;1.90;;
69779;SDS011;57052;55.602;38.096;2024-01-07T05:47:45;4.43;;;2.10;;
69779;SDS011;57052;55.602;38.096;2024-01-07T05:50:11;2.67;;;1.40;;
69779;SDS011;57052;55.602;38.096;2024-01-07T05:52:40;4.23;;;2.43;;
69779;SDS011;57052;55.602;38.096;2024-01-07T05:55:06;4.93;;;2.70;;
69779;SDS011;57052;55.602;38.096;2024-01-07T05:57:32;8.57;;;2.57;;
69779;SDS011;57052;55.602;38.096;2024-01-07T05:59:57;4.77;;;1.50;;
69779;SDS011;57052;55.602;38.096;2024-01-07T06:02:23;3.87;;;2.00;;
69779;SDS011;57052;55.602;38.096;2024-01-07T06:04:49;7.43;;;2.30;;
69779;SDS011;57052;55.602;38.096;2024-01-07T06:07:15;5.63;;;2.67;;
69779;SDS011;57052;55.602;38.096;2024-01-07T06:09:41;8.00;;;2.27;;
69779;SDS011;57052;55.602;38.096;2024-01-07T06:12:07;5.80;;;1.80;;
69779;SDS011;57052;55.602;38.096;2024-01-07T06:14:32;10.93;;;2.40;;
69779;SDS011;57052;55.602;38.096;2024-01-07T06:16:58;2.63;;;1.23;;
69779;SDS011;57052;55.602;38.096;2024-01-07T06:19:24;4.00;;;2.40;;
69779;SDS011;57052;55.602;38.096;2024-01-07T06:21:50;3.73;;;2.70;;
69779;SDS011;57052;55.602;38.096;2024-01-07T06:24:15;2.97;;;1.73;;
69779;SDS011;57052;55.602;38.096;2024-01-07T06:26:41;8.90;;;1.87;;
69779;SDS011;57052;55.602;38.096;2024-01-07T06:29:07;4.07;;;1.83;;
69779;SDS011;57052;55.602;38.096;2024-01-07T06:31:34;6.23;;;1.50;;
69779;SDS011;57052;55.602;38.096;2024-01-07T06:34:00;2.50;;;1.70;;
69779;SDS011;57052;55.602;38.096;2024-01-07T06:36:26;7.00;;;2.70;;
69779;SDS011;57052;55.602;38.096;2024-01-07T06:38:52;3.93;;;2.47;;
69779;SDS011;57052;55.602;38.096;2024-01-07T06:41:18;6.97;;;3.03;;
69779;SDS011;57052;55.602;38.096;2024-01-07T06:43:44;8.23;;;3.50;;
69779;SDS011;57052;55.602;38.096;2024-01-07T06:46:09;8.47;;;3.27;;
69779;SDS011;57052;55.602;38.096;2024-01-07T06:48:36;8.67;;;3.10;;
69779;SDS011;57052;55.602;38.096;2024-01-07T06:51:01;8.13;;;3.80;;
69779;SDS011;57052;55.602;38.096;2024-01-07T06:53:27;10.10;;;3.23;;
69779;SDS011;57052;55.602;38.096;2024-01-07T06:55:53;14.17;;;4.80;;
69779;SDS011;57052;55.602;38.096;2024-01-07T06:58:18;5.60;;;2.37;;
69779;SDS011;57052;55.602;38.096;2024-01-07T07:00:44;8.80;;;2.97;;
69779;SDS011;57052;55.602;38.096;2024-01-07T07:03:10;13.53;;;3.93;;
69779;SDS011;57052;55.602;38.096;2024-01-07T07:05:36;6.07;;;3.03;;
69779;SDS011;57052;55.602;38.096;2024-01-07T07:08:02;4.47;;;2.90;;
69779;SDS011;57052;55.602;38.096;2024-01-07T07:10:28;5.97;;;3.40;;
69779;SDS011;57052;55.602;38.096;2024-01-07T07:12:53;13.97;;;4.13;;
69779;SDS011;57052;55.602;38.096;2024-01-07T07:15:19;5.63;;;2.53;;
69779;SDS011;57052;55.602;38.096;2024-01-07T07:17:45;6.50;;;2.77;;
69779;SDS011;57052;55.602;38.096;2024-01-07T07:20:11;5.63;;;3.07;;
69779;SDS011;57052;55.602;38.096;2024-01-07T07:22:37;15.70;;;4.67;;
69779;SDS011;57052;55.602;38.096;2024-01-07T07:25:02;6.17;;;3.30;;
69779;SDS011;57052;55.602;38.096;2024-01-07T07:27:30;6.87;;;3.57;;
69779;SDS011;57052;55.602;38.096;2024-01-07T07:29:56;14.97;;;3.90;;
69779;SDS011;57052;55.602;38.096;2024-01-07T07:32:22;7.03;;;2.93;;
69779;SDS011;57052;55.602;38.096;2024-01-07T07:34:48;7.47;;;4.23;;
69779;SDS011;57052;55.602;38.096;2024-01-07T07:37:13;12.27;;;4.07;;
69779;SDS011;57052;55.602;38.096;2024-01-07T07:39:39;10.20;;;3.97;;
69779;SDS011;57052;55.602;38.096;2024-01-07T07:42:05;6.73;;;3.10;;
69779;SDS011;57052;55.602;38.096;2024-01-07T07:44:31;6.97;;;2.47;;
69779;SDS011;57052;55.602;38.096;2024-01-07T07:46:57;7.30;;;2.93;;
69779;SDS011;57052;55.602;38.096;2024-01-07T07:49:22;9.97;;;4.53;;
69779;SDS011;57052;55.602;38.096;2024-01-07T07:51:48;7.30;;;2.60;;
69779;SDS011;57052;55.602;38.096;2024-01-07T07:54:14;9.70;;;3.83;;
69779;SDS011;57052;55.602;38.096;2024-01-07T07:56:40;12.00;;;2.80;;
69779;SDS011;57052;55.602;38.096;2024-01-07T07:59:05;5.37;;;3.43;;
69779;SDS011;57052;55.602;38.096;2024-01-07T08:01:31;9.70;;;3.83;;
69779;SDS011;57052;55.602;38.096;2024-01-07T08:03:57;4.17;;;3.03;;
69779;SDS011;57052;55.602;38.096;2024-01-07T08:06:23;16.73;;;3.07;;
69779;SDS011;57052;55.602;38.096;2024-01-07T08:08:48;5.47;;;2.87;;
69779;SDS011;57052;55.602;38.096;2024-01-07T08:11:14;6.73;;;3.30;;
69779;SDS011;57052;55.602;38.096;2024-01-07T08:13:40;11.20;;;4.10;;
69779;SDS011;57052;55.602;38.096;2024-01-07T08:16:06;8.83;;;3.10;;
69779;SDS011;57052;55.602;38.096;2024-01-07T08:18:32;5.30;;;2.37;;
69779;SDS011;57052;55.602;38.096;2024-01-07T08:20:58;7.17;;;3.63;;
69779;SDS011;57052;55.602;38.096;2024-01-07T08:23:24;6.13;;;2.83;;
69779;SDS011;57052;55.602;38.096;2024-01-07T08:25:50;8.13;;;3.77;;
69779;SDS011;57052;55.602;38.096;2024-01-07T08:28:19;6.77;;;3.77;;
69779;SDS011;57052;55.602;38.096;2024-01-07T08:30:46;9.73;;;3.80;;
69779;SDS011;57052;55.602;38.096;2024-01-07T08:33:12;4.60;;;3.27;;
69779;SDS011;57052;55.602;38.096;2024-01-07T08:35:38;4.03;;;3.10;;
69779;SDS011;57052;55.602;38.096;2024-01-07T08:38:04;7.97;;;3.93;;
69779;SDS011;57052;55.602;38.096;2024-01-07T08:40:30;10.50;;;3.17;;
69779;SDS011;57052;55.602;38.096;2024-01-07T08:42:56;6.67;;;2.87;;
69779;SDS011;57052;55.602;38.096;2024-01-07T08:45:22;6.40;;;3.37;;
69779;SDS011;57052;55.602;38.096;2024-01-07T08:47:49;7.17;;;3.20;;
69779;SDS011;57052;55.602;38.096;2024-01-07T08:50:14;12.27;;;3.87;;
69779;SDS011;57052;55.602;38.096;2024-01-07T08:52:40;11.23;;;4.17;;
69779;SDS011;57052;55.602;38.096;2024-01-07T08:55:06;13.57;;;4.47;;
69779;SDS011;57052;55.602;38.096;2024-01-07T08:57:35;6.00;;;2.33;;
69779;SDS011;57052;55.602;38.096;2024-01-07T09:00:02;7.23;;;3.20;;
69779;SDS011;57052;55.602;38.096;2024-01-07T09:02:30;11.30;;;3.87;;
69779;SDS011;57052;55.602;38.096;2024-01-07T09:04:56;4.77;;;2.40;;
69779;SDS011;57052;55.602;38.096;2024-01-07T09:07:23;8.10;;;3.10;;
69779;SDS011;57052;55.602;38.096;2024-01-07T09:09:48;7.70;;;3.20;;
69779;SDS011;57052;55.602;38.096;2024-01-07T09:12:14;7.13;;;2.67;;
69779;SDS011;57052;55.602;38.096;2024-01-07T09:14:40;7.50;;;2.70;;
69779;SDS011;57052;55.602;38.096;2024-01-07T09:17:06;8.13;;;3.50;;
69779;SDS011;57052;55.602;38.096;2024-01-07T09:19:31;5.60;;;2.47;;
69779;SDS011;57052;55.602;38.096;2024-01-07T09:21:57;6.90;;;3.27;;
69779;SDS011;57052;55.602;38.096;2024-01-07T09:24:23;8.63;;;3.50;;
69779;SDS011;57052;55.602;38.096;2024-01-07T09:26:49;8.63;;;3.87;;
69779;SDS011;57052;55.602;38.096;2024-01-07T09:29:14;16.63;;;5.20;;
69779;SDS011;57052;55.602;38.096;2024-01-07T09:31:40;7.47;;;3.07;;
69779;SDS011;57052;55.602;38.096;2024-01-07T09:34:06;10.27;;;3.30;;
69779;SDS011;57052;55.602;38.096;2024-01-07T09:36:32;4.50;;;2.60;;
69779;SDS011;57052;55.602;38.096;2024-01-07T09:38:58;9.77;;;3.27;;
69779;SDS011;57052;55.602;38.096;2024-01-07T09:41:24;11.30;;;4.07;;
69779;SDS011;57052;55.602;38.096;2024-01-07T09:43:51;6.20;;;3.03;;
69779;SDS011;57052;55.602;38.096;2024-01-07T09:46:18;11.33;;;4.20;;
69779;SDS011;57052;55.602;38.096;2024-01-07T09:48:44;11.63;;;4.40;;
69779;SDS011;57052;55.602;38.096;2024-01-07T09:51:10;7.57;;;3.67;;
69779;SDS011;57052;55.602;38.096;2024-01-07T09:53:38;9.93;;;4.37;;
69779;SDS011;57052;55.602;38.096;2024-01-07T09:56:20;8.37;;;3.10;;
69779;SDS011;57052;55.602;38.096;2024-01-07T09:58:50;12.45;;;3.63;;
69779;SDS011;57052;55.602;38.096;2024-01-07T10:01:19;11.37;;;4.07;;
69779;SDS011;57052;55.602;38.096;2024-01-07T10:03:45;9.50;;;3.43;;
69779;SDS011;57052;55.602;38.096;2024-01-07T10:06:11;15.10;;;5.17;;
69779;SDS011;57052;55.602;38.096;2024-01-07T10:08:38;8.40;;;4.10;;
69779;SDS011;57052;55.602;38.096;2024-01-07T10:11:04;7.33;;;3.43;;
69779;SDS011;57052;55.602;38.096;2024-01-07T10:13:30;9.20;;;3.80;;
69779;SDS011;57052;55.602;38.096;2024-01-07T10:15:58;14.40;;;3.73;;
69779;SDS011;57052;55.602;38.096;2024-01-07T10:18:24;14.20;;;3.67;;
69779;SDS011;57052;55.602;38.096;2024-01-07T10:20:51;7.93;;;2.97;;
69779;SDS011;57052;55.602;38.096;2024-01-07T10:23:20;8.97;;;3.70;;
69779;SDS011;57052;55.602;38.096;2024-01-07T10:25:46;10.17;;;4.00;;
69779;SDS011;57052;55.602;38.096;2024-01-07T10:28:13;13.50;;;3.47;;
69779;SDS011;57052;55.602;38.096;2024-01-07T10:30:40;10.80;;;4.40;;
69779;SDS011;57052;55.602;38.096;2024-01-07T10:33:06;6.27;;;3.00;;
69779;SDS011;57052;55.602;38.096;2024-01-07T10:35:34;23.87;;;3.67;;
69779;SDS011;57052;55.602;38.096;2024-01-07T10:38:02;5.83;;;3.07;;
69779;SDS011;57052;55.602;38.096;2024-01-07T10:40:29;6.17;;;2.90;;
69779;SDS011;57052;55.602;38.096;2024-01-07T10:42:56;9.60;;;3.67;;
69779;SDS011;57052;55.602;38.096;2024-01-07T10:45:23;8.20;;;3.83;;
69779;SDS011;57052;55.602;38.096;2024-01-07T10:47:49;9.73;;;4.17;;
69779;SDS011;57052;55.602;38.096;2024-01-07T10:50:19;9.97;;;3.77;;
69779;SDS011;57052;55.602;38.096;2024-01-07T10:52:48;8.80;;;3.77;;
69779;SDS011;57052;55.602;38.096;2024-01-07T10:55:18;13.93;;;3.53;;
69779;SDS011;57052;55.602;38.096;2024-01-07T11:00:15;11.10;;;3.77;;
69779;SDS011;57052;55.602;38.096;2024-01-07T11:02:59;9.93;;;3.17;;
69779;SDS011;57052;55.602;38.096;2024-01-07T11:08:27;6.93;;;2.50;;
69779;SDS011;57052;55.602;38.096;2024-01-07T11:11:01;6.03;;;2.77;;
69779;SDS011;57052;55.602;38.096;2024-01-07T11:13:38;7.77;;;3.13;;
69779;SDS011;57052;55.602;38.096;2024-01-07T11:16:07;8.63;;;4.13;;
69779;SDS011;57052;55.602;38.096;2024-01-07T11:21:11;7.23;;;4.13;;
69779;SDS011;57052;55.602;38.096;2024-01-07T11:23:46;9.43;;;3.47;;
69779;SDS011;57052;55.602;38.096;2024-01-07T11:26:12;20.60;;;3.73;;
69779;SDS011;57052;55.602;38.096;2024-01-07T11:28:48;6.67;;;3.33;;
69779;SDS011;57052;55.602;38.096;2024-01-07T11:31:17;6.67;;;3.07;;
69779;SDS011;57052;55.602;38.096;2024-01-07T11:33:45;10.23;;;3.60;;
69779;SDS011;57052;55.602;38.096;2024-01-07T11:36:18;7.43;;;2.78;;
69779;SDS011;57052;55.602;38.096;2024-01-07T11:38:44;6.83;;;2.97;;
69779;SDS011;57052;55.602;38.096;2024-01-07T11:41:12;7.68;;;3.63;;
69779;SDS011;57052;55.602;38.096;2024-01-07T11:43:51;7.97;;;3.10;;
69779;SDS011;57052;55.602;38.096;2024-01-07T11:46:18;6.47;;;3.03;;
69779;SDS011;57052;55.602;38.096;2024-01-07T11:48:45;5.03;;;2.10;;
69779;SDS011;57052;55.602;38.096;2024-01-07T11:51:11;6.27;;;2.13;;
69779;SDS011;57052;55.602;38.096;2024-01-07T11:53:37;6.70;;;3.07;;
69779;SDS011;57052;55.602;38.096;2024-01-07T11:56:03;5.73;;;2.70;;
69779;SDS011;57052;55.602;38.096;2024-01-07T11:58:30;6.40;;;2.77;;
69779;SDS011;57052;55.602;38.096;2024-01-07T12:00:56;7.30;;;3.30;;
69779;SDS011;57052;55.602;38.096;2024-01-07T12:03:23;5.80;;;2.43;;
69779;SDS011;57052;55.602;38.096;2024-01-07T12:05:49;5.57;;;3.07;;
69779;SDS011;57052;55.602;38.096;2024-01-07T12:08:15;13.00;;;3.27;;
69779;SDS011;57052;55.602;38.096;2024-01-07T12:10:41;6.87;;;2.57;;
69779;SDS011;57052;55.602;38.096;2024-01-07T12:13:07;6.43;;;2.90;;
69779;SDS011;57052;55.602;38.096;2024-01-07T12:15:34;6.77;;;3.17;;
69779;SDS011;57052;55.602;38.096;2024-01-07T12:18:00;6.57;;;2.73;;
69779;SDS011;57052;55.602;38.096;2024-01-07T12:20:27;11.03;;;2.77;;
69779;SDS011;57052;55.602;38.096;2024-01-07T12:22:56;6.87;;;3.90;;
69779;SDS011;57052;55.602;38.096;2024-01-07T12:25:23;6.73;;;3.30;;
69779;SDS011;57052;55.602;38.096;2024-01-07T12:27:52;16.90;;;3.27;;
69779;SDS011;57052;55.602;38.096;2024-01-07T12:30:18;7.30;;;2.70;;
69779;SDS011;57052;55.602;38.096;2024-01-07T12:32:45;13.63;;;3.97;;
69779;SDS011;57052;55.602;38.096;2024-01-07T12:35:11;4.20;;;2.83;;
69779;SDS011;57052;55.602;38.096;2024-01-07T12:37:37;3.03;;;2.37;;
69779;SDS011;57052;55.602;38.096;2024-01-07T12:40:03;9.43;;;3.87;;
69779;SDS011;57052;55.602;38.096;2024-01-07T12:42:30;5.53;;;2.50;;
69779;SDS011;57052;55.602;38.096;2024-01-07T12:44:55;8.27;;;2.40;;
69779;SDS011;57052;55.602;38.096;2024-01-07T12:47:21;5.17;;;2.07;;
69779;SDS011;57052;55.602;38.096;2024-01-07T12:49:47;4.60;;;2.40;;
69779;SDS011;57052;55.602;38.096;2024-01-07T12:52:13;7.97;;;3.50;;
69779;SDS011;57052;55.602;38.096;2024-01-07T12:54:38;4.63;;;2.50;;
69779;SDS011;57052;55.602;38.096;2024-01-07T12:57:04;8.47;;;2.90;;
69779;SDS011;57052;55.602;38.096;2024-01-07T12:59:30;8.10;;;3.47;;
69779;SDS011;57052;55.602;38.096;2024-01-07T13:01:56;8.00;;;3.00;;
69779;SDS011;57052;55.602;38.096;2024-01-07T13:04:22;8.33;;;3.30;;
69779;SDS011;57052;55.602;38.096;2024-01-07T13:06:48;6.93;;;2.87;;
69779;SDS011;57052;55.602;38.096;2024-01-07T13:09:13;9.50;;;3.30;;
69779;SDS011;57052;55.602;38.096;2024-01-07T13:11:39;6.83;;;3.07;;
69779;SDS011;57052;55.602;38.096;2024-01-07T13:14:05;4.50;;;2.37;;
69779;SDS011;57052;55.602;38.096;2024-01-07T13:16:31;3.87;;;2.00;;
69779;SDS011;57052;55.602;38.096;2024-01-07T13:18:57;9.47;;;2.33;;
69779;SDS011;57052;55.602;38.096;2024-01-07T13:21:23;10.00;;;2.80;;
69779;SDS011;57052;55.602;38.096;2024-01-07T13:23:49;3.97;;;2.30;;
69779;SDS011;57052;55.602;38.096;2024-01-07T13:26:15;3.97;;;1.93;;
69779;SDS011;57052;55.602;38.096;2024-01-07T13:28:41;9.00;;;2.80;;
69779;SDS011;57052;55.602;38.096;2024-01-07T13:31:08;6.83;;;2.23;;
69779;SDS011;57052;55.602;38.096;2024-01-07T13:33:37;4.93;;;2.13;;
69779;SDS011;57052;55.602;38.096;2024-01-07T13:36:03;8.83;;;2.70;;
69779;SDS011;57052;55.602;38.096;2024-01-07T13:38:34;3.13;;;2.03;;
69779;SDS011;57052;55.602;38.096;2024-01-07T13:41:00;5.03;;;2.97;;
69779;SDS011;57052;55.602;38.096;2024-01-07T13:43:26;4.40;;;2.03;;
69779;SDS011;57052;55.602;38.096;2024-01-07T13:45:54;4.40;;;2.53;;
69779;SDS011;57052;55.602;38.096;2024-01-07T13:48:20;5.43;;;2.67;;
69779;SDS011;57052;55.602;38.096;2024-01-07T13:50:46;5.60;;;2.50;;
69779;SDS011;57052;55.602;38.096;2024-01-07T13:53:14;6.47;;;3.50;;
69779;SDS011;57052;55.602;38.096;2024-01-07T13:55:39;6.33;;;2.40;;
69779;SDS011;57052;55.602;38.096;2024-01-07T13:58:05;5.17;;;2.93;;
69779;SDS011;57052;55.602;38.096;2024-01-07T14:00:31;10.27;;;3.73;;
69779;SDS011;57052;55.602;38.096;2024-01-07T14:02:57;10.37;;;3.77;;
69779;SDS011;57052;55.602;38.096;2024-01-07T14:05:22;6.00;;;3.00;;
69779;SDS011;57052;55.602;38.096;2024-01-07T14:07:48;5.90;;;3.33;;
69779;SDS011;57052;55.602;38.096;2024-01-07T14:10:14;9.07;;;2.47;;
69779;SDS011;57052;55.602;38.096;2024-01-07T14:12:40;8.77;;;3.00;;
69779;SDS011;57052;55.602;38.096;2024-01-07T14:15:06;7.47;;;3.60;;
69779;SDS011;57052;55.602;38.096;2024-01-07T14:17:34;3.67;;;2.67;;
69779;SDS011;57052;55.602;38.096;2024-01-07T14:20:00;9.47;;;3.30;;
69779;SDS011;57052;55.602;38.096;2024-01-07T14:22:26;6.57;;;2.73;;
69779;SDS011;57052;55.602;38.096;2024-01-07T14:24:51;6.47;;;2.33;;
69779;SDS011;57052;55.602;38.096;2024-01-07T14:27:17;5.90;;;2.33;;
69779;SDS011;57052;55.602;38.096;2024-01-07T14:29:44;11.17;;;2.77;;
69779;SDS011;57052;55.602;38.096;2024-01-07T14:32:11;4.53;;;1.73;;
69779;SDS011;57052;55.602;38.096;2024-01-07T14:34:40;4.43;;;2.23;;
69779;SDS011;57052;55.602;38.096;2024-01-07T14:37:09;6.77;;;1.87;;